Lampeter, United Kingdom
Current Conditions -  °F | °C
As of 5:50 AM on Wednesday 26 Nov 2014 (Local Time) from EGOP Reporting Station
Overcast Overcast  
Wind Chill: 40°   Ceiling: 1900
Heat Index: 43°   Visibility: 3mi
Dew Point: 43°   Wind: 5mph
Humidity: 100%   Direction: 30°NNE
Pressure: 29.91"   Gusts: NA
Location:  52.11°N, 4.08°W
Report Text: EGOP 260550Z AUTO 03004KT 5000 // OVC019/// 06/06 Q1013
Loading
Personal Weather Stations






























Interactive Weather Map New forecast layout! Learn more

10-Day Weather Forecast

Advertisements
Track Severe Weather on mobile